Time;durP1;ratioP1;P1;durP2;ratioP2;P2;SDS_P1;SDS_P2;PMS_P1;PMS_P2;Temp;Humidity;BMP_temperature;BMP_pressure;BME280_temperature;BME280_humidity;BME280_pressure;Samples;Min_cycle;Max_cycle;Signal;HPM_P1;HPM_P2
2022/06/21 00:01:26;;;;;;;2.60;2.13;;;;;;;-143.84;53.32;45045.25;5091075;28;20944;-78
2022/06/21 00:03:54;;;;;;;3.10;2.40;;;;;;;-143.84;53.35;45031.94;5091099;28;20467;-78
2022/06/21 00:06:24;;;;;;;2.37;2.20;;;;;;;-143.84;52.00;45028.13;5082735;28;20445;-78
2022/06/21 00:08:51;;;;;;;2.53;2.33;;;;;;;-143.84;51.16;45026.22;5071256;28;20465;-78
2022/06/21 00:11:23;;;;;;;4.73;2.37;;;;;;;-143.84;50.02;45018.59;5070897;28;20490;-78
2022/06/21 00:13:51;;;;;;;6.03;2.70;;;;;;;-143.84;50.08;45018.59;5071103;28;20436;-78
2022/06/21 00:16:19;;;;;;;2.33;2.13;;;;;;;-143.84;49.19;45033.84;5071150;28;20421;-78
2022/06/21 00:18:49;;;;;;;4.30;2.33;;;;;;;-143.84;48.47;45030.03;5070844;28;20433;-78
2022/06/21 00:21:17;;;;;;;2.20;2.00;;;;;;;-143.84;47.80;45033.84;5071038;28;20437;-78
2022/06/21 00:23:45;;;;;;;6.00;2.63;;;;;;;-143.84;47.09;45049.06;5070440;28;20468;-78
2022/06/21 00:26:13;;;;;;;5.00;1.73;;;;;;;-143.84;46.94;45039.53;5070924;28;20505;-78
2022/06/21 00:28:40;;;;;;;2.40;2.13;;;;;;;-143.84;46.43;45020.50;5071278;28;20433;-78
2022/06/21 00:31:15;;;;;;;2.17;1.87;;;;;;;-143.84;46.24;45037.66;5070753;28;20425;-78
2022/06/21 00:33:42;;;;;;;2.30;1.90;;;;;;;-143.84;45.86;45026.22;5074208;28;20467;-78
2022/06/21 00:36:18;;;;;;;12.07;2.10;;;;;;;-143.84;45.58;45026.22;5074367;28;20490;-79
2022/06/21 00:38:46;;;;;;;2.20;2.00;;;;;;;-143.84;45.58;45014.78;5074429;28;20914;-78
2022/06/21 00:41:16;;;;;;;11.73;2.13;;;;;;;-143.84;45.36;45030.03;5074265;28;20520;-78
2022/06/21 00:43:46;;;;;;;3.10;1.90;;;;;;;-143.84;45.44;45024.31;5074424;28;21130;-79
2022/06/21 00:46:26;;;;;;;7.33;2.13;;;;;;;-143.84;45.20;45052.88;5074020;28;20464;-78
2022/06/21 00:48:56;;;;;;;2.93;2.10;;;;;;;-143.84;44.41;45035.75;5074066;28;20433;-78
2022/06/21 00:51:31;;;;;;;5.87;2.10;;;;;;;-143.84;44.35;45033.84;5073959;28;20474;-78
2022/06/21 00:54:04;;;;;;;5.00;1.80;;;;;;;-143.84;43.99;44988.13;5074122;28;20461;-78
2022/06/21 00:56:36;;;;;;;2.70;1.80;;;;;;;-143.84;43.67;45064.31;5073713;28;20429;-78
2022/06/21 00:59:17;;;;;;;2.87;2.37;;;;;;;-143.84;44.04;45047.16;5074074;28;21290;-79
2022/06/21 01:01:45;;;;;;;3.13;2.27;;;;;;;-143.84;44.34;45028.13;5073981;28;20486;-78
2022/06/21 01:04:17;;;;;;;2.00;1.90;;;;;;;-143.84;43.87;45075.72;5074142;28;20898;-78
2022/06/21 01:06:50;;;;;;;2.57;2.37;;;;;;;-143.84;44.92;45028.13;5073982;28;20482;-78
2022/06/21 01:09:23;;;;;;;1.87;1.77;;;;;;;-143.84;45.47;45049.06;5073941;28;20849;-78
2022/06/21 01:11:55;;;;;;;3.40;2.10;;;;;;;-143.84;46.37;45039.53;5073919;28;20467;-78
2022/06/21 01:14:24;;;;;;;4.23;2.27;;;;;;;-143.84;47.14;45018.59;5073898;28;20432;-78
2022/06/21 01:16:52;;;;;;;2.70;2.50;;;;;;;-143.84;47.82;45022.41;5073782;28;20899;-79
2022/06/21 01:19:29;;;;;;;5.37;2.40;;;;;;;-143.84;48.18;45047.16;5073687;28;20433;-78
2022/06/21 01:22:12;;;;;;;2.17;1.97;;;;;;;-143.84;48.64;45028.13;5074065;28;20509;-78
2022/06/21 01:24:50;;;;;;;2.07;1.97;;;;;;;-143.84;48.60;45005.28;5073748;28;20476;-78
2022/06/21 01:27:19;;;;;;;3.17;2.30;;;;;;;-143.84;49.17;45052.88;5073480;28;20490;-78
2022/06/21 01:29:47;;;;;;;12.80;3.80;;;;;;;-143.84;50.21;45012.88;5073323;28;20451;-78
2022/06/21 01:32:15;;;;;;;6.00;2.20;;;;;;;-143.84;51.09;45031.94;5073486;28;20567;-78
2022/06/21 01:34:42;;;;;;;3.30;2.67;;;;;;;-143.84;51.48;45016.69;5073753;28;20437;-78
2022/06/21 01:37:13;;;;;;;4.80;3.10;;;;;;;-143.84;51.22;45030.03;5073329;28;20502;-78
2022/06/21 01:39:47;;;;;;;2.57;2.37;;;;;;;-143.84;50.81;45037.66;5073669;28;20854;-78
2022/06/21 01:42:22;;;;;;;8.47;2.50;;;;;;;-143.84;50.48;45049.06;5072957;28;20515;-78
2022/06/21 01:44:55;;;;;;;5.10;2.30;;;;;;;-143.84;49.32;45041.44;5073493;28;20464;-78
2022/06/21 01:47:27;;;;;;;5.23;2.20;;;;;;;-143.84;48.60;45031.94;5073034;28;20437;-78
2022/06/21 01:49:59;;;;;;;7.80;2.10;;;;;;;-143.84;48.08;45028.13;5072918;28;20909;-78
2022/06/21 01:52:29;;;;;;;3.00;2.30;;;;;;;-143.84;46.98;45010.97;5072964;28;20467;-78
2022/06/21 01:55:03;;;;;;;2.20;2.00;;;;;;;-143.84;46.88;45043.34;5072965;28;20440;-77
2022/06/21 01:57:32;;;;;;;3.73;2.10;;;;;;;-143.84;46.32;45026.22;5072695;28;20439;-78
2022/06/21 02:00:03;;;;;;;4.37;2.37;;;;;;;-143.84;46.15;45016.69;5072836;28;20927;-78
2022/06/21 02:02:37;;;;;;;9.80;1.80;;;;;;;-143.84;45.55;45024.31;5072742;28;20439;-78
2022/06/21 02:05:09;;;;;;;10.00;2.00;;;;;;;-143.84;45.51;45022.41;5072731;28;20475;-78
2022/06/21 02:17:46;;;;;;;2.40;1.63;;;;;;;-143.84;43.96;45026.22;5093092;28;20781;-78
2022/06/21 02:20:19;;;;;;;6.03;2.30;;;;;;;-143.84;43.62;45024.31;5092659;28;20448;-78
2022/06/21 02:22:47;;;;;;;1.83;1.73;;;;;;;-143.84;43.48;45009.09;5090875;28;20512;-78
2022/06/21 02:25:16;;;;;;;3.53;1.97;;;;;;;-143.84;43.92;45035.75;5089149;28;20483;-78
2022/06/21 02:27:43;;;;;;;6.53;1.90;;;;;;;-143.84;44.02;45031.94;5090406;28;20435;-78
2022/06/21 02:30:18;;;;;;;3.33;2.30;;;;;;;-143.84;44.13;45035.75;5092137;28;20855;-78
2022/06/21 02:32:47;;;;;;;3.97;2.30;;;;;;;-143.84;45.24;45033.84;5091960;28;20486;-78
2022/06/21 02:35:22;;;;;;;2.87;2.27;;;;;;;-143.84;45.64;45028.13;5091856;28;20447;-78
2022/06/21 02:37:52;;;;;;;2.87;2.43;;;;;;;-143.84;46.87;45028.13;5091986;28;20948;-79
2022/06/21 02:40:24;;;;;;;3.73;2.10;;;;;;;-143.84;47.30;45031.94;5092590;28;20452;-79
2022/06/21 02:42:55;;;;;;;2.60;2.40;;;;;;;-143.84;45.21;45018.59;5092281;28;20432;-78
2022/06/21 02:45:27;;;;;;;5.47;2.23;;;;;;;-143.84;45.69;45024.31;5092390;28;20895;-78
2022/06/21 02:58:09;;;;;;;13.53;3.03;;;;;;;-143.84;49.28;45030.03;5092546;28;20449;-78
2022/06/21 03:00:36;;;;;;;3.40;2.70;;;;;;;-143.84;49.63;45024.31;5092222;28;20435;-78
2022/06/21 03:03:08;;;;;;;4.13;2.30;;;;;;;-143.84;50.67;45018.59;5092158;28;20501;-78
2022/06/21 03:05:35;;;;;;;3.73;2.70;;;;;;;-143.84;50.54;45014.78;5092238;28;20433;-78
2022/06/21 03:08:06;;;;;;;4.60;2.30;;;;;;;-143.84;49.42;45026.22;5092112;28;20489;-78
2022/06/21 03:10:39;;;;;;;3.57;2.57;;;;;;;-143.84;49.22;45037.66;5091514;28;20436;-78
2022/06/21 03:13:14;;;;;;;2.50;2.17;;;;;;;-143.84;49.91;45012.88;5091642;28;21270;-78
2022/06/21 03:15:44;;;;;;;3.00;2.40;;;;;;;-143.84;51.81;45020.50;5091542;28;20871;-78
2022/06/21 03:18:15;;;;;;;2.80;2.60;;;;;;;-143.84;53.47;45007.19;5091708;28;20436;-78
2022/06/21 03:20:42;;;;;;;2.73;2.50;;;;;;;-143.84;53.66;45049.06;5073879;28;20526;-78
2022/06/21 03:23:13;;;;;;;7.03;2.60;;;;;;;-143.84;52.95;45047.16;5053208;28;20456;-79
2022/06/21 03:25:46;;;;;;;4.17;2.87;;;;;;;-143.84;54.19;45014.78;5070860;28;20429;-78
2022/06/21 03:28:24;;;;;;;3.80;3.37;;;;;;;-143.84;55.68;45030.03;5070858;28;20432;-82
2022/06/21 03:30:58;;;;;;;6.93;2.70;;;;;;;-143.84;56.03;45018.59;5071288;28;20531;-80
2022/06/21 03:33:25;;;;;;;3.97;2.60;;;;;;;-143.84;56.36;45016.69;5071332;28;20537;-81
2022/06/21 03:35:53;;;;;;;6.50;2.73;;;;;;;-143.84;56.52;45030.03;5071194;28;20816;-79
2022/06/21 03:38:20;;;;;;;2.90;2.70;;;;;;;-143.84;55.26;45020.50;5071058;28;20784;-80
2022/06/21 03:43:38;;;;;;;5.33;3.00;;;;;;;-143.84;50.48;44991.94;5091077;28;20513;-79
2022/06/21 03:46:12;;;;;;;4.47;2.80;;;;;;;-143.84;47.52;45003.38;5091565;28;20848;-79
2022/06/21 03:48:44;;;;;;;12.43;2.70;;;;;;;-143.84;46.10;44978.63;5091412;28;20481;-79
2022/06/21 03:51:16;;;;;;;9.00;2.80;;;;;;;-143.84;44.30;44999.56;5091244;28;20436;-79
2022/06/21 03:53:48;;;;;;;5.90;2.37;;;;;;;-143.84;42.70;44963.38;5091154;28;20436;-79
2022/06/21 03:56:22;;;;;;;2.70;2.30;;;;;;;-143.84;41.96;44980.53;5090953;28;20996;-78
2022/06/21 03:59:02;;;;;;;4.27;2.77;;;;;;;-143.84;41.48;44946.25;5091117;28;20866;-78
2022/06/21 04:01:34;;;;;;;2.80;2.20;;;;;;;-143.84;40.54;44955.75;5090869;28;20446;-78
2022/06/21 04:04:12;;;;;;;3.70;2.80;;;;;;;-143.84;40.20;44957.66;5090585;28;20475;-78
2022/06/21 04:06:47;;;;;;;2.47;2.37;;;;;;;-143.84;39.67;44925.31;5093385;28;20459;-78
2022/06/21 04:09:23;;;;;;;5.27;2.63;;;;;;;-143.84;39.06;44950.06;5094827;28;20825;-78
2022/06/21 04:11:59;;;;;;;4.90;2.80;;;;;;;-143.84;39.26;44929.09;5094772;28;20435;-78
2022/06/21 04:14:33;;;;;;;9.33;2.50;;;;;;;-143.84;39.12;44934.81;5094841;28;20447;-78
2022/06/21 04:17:05;;;;;;;2.57;2.30;;;;;;;-143.84;38.15;44927.19;5094205;28;20450;-78
2022/06/21 04:19:38;;;;;;;5.10;2.00;;;;;;;-143.84;38.37;44967.19;5094993;28;20493;-78
2022/06/21 04:22:10;;;;;;;2.80;2.17;;;;;;;-143.84;38.67;44946.25;5094839;28;20435;-78
2022/06/21 04:24:44;;;;;;;4.03;2.33;;;;;;;-143.84;38.76;44969.09;5094764;28;20491;-78
2022/06/21 04:27:18;;;;;;;2.67;2.43;;;;;;;-143.84;38.33;44986.22;5094980;28;20424;-78
2022/06/21 04:29:53;;;;;;;6.10;2.50;;;;;;;-143.84;38.45;44948.16;5094658;28;20493;-78
2022/06/21 04:32:32;;;;;;;8.93;2.30;;;;;;;-143.84;37.55;44972.91;5094173;28;20471;-78
2022/06/21 04:35:05;;;;;;;2.33;2.13;;;;;;;-143.84;37.35;44957.66;5094165;28;20454;-78
2022/06/21 04:37:36;;;;;;;5.10;1.93;;;;;;;-143.84;37.69;44959.56;5093974;28;20933;-78
2022/06/21 04:40:08;;;;;;;2.53;1.87;;;;;;;-143.84;37.41;44929.09;5094187;28;20451;-78
2022/06/21 04:42:42;;;;;;;2.50;2.03;;;;;;;-143.84;37.35;44927.19;5094369;28;20432;-78
2022/06/21 04:45:19;;;;;;;4.73;2.43;;;;;;;-143.84;37.23;44950.06;5093931;28;20882;-78
2022/06/21 04:47:52;;;;;;;3.20;2.00;;;;;;;-143.84;37.55;44917.69;5093885;28;20443;-78
2022/06/21 04:50:26;;;;;;;5.97;2.30;;;;;;;-143.84;38.25;44963.38;5093682;28;20432;-78
2022/06/21 04:52:59;;;;;;;8.00;2.40;;;;;;;-143.84;37.84;44942.44;5093879;28;20434;-78
2022/06/21 04:55:35;;;;;;;10.43;2.33;;;;;;;-143.84;38.00;44944.34;5093991;28;20505;-78
2022/06/21 04:58:02;;;;;;;5.23;2.53;;;;;;;-143.84;38.44;44923.41;5094415;28;20789;-78
2022/06/21 05:00:31;;;;;;;2.13;1.93;;;;;;;-143.84;38.41;44953.88;5094187;28;20485;-76
2022/06/21 05:03:04;;;;;;;5.50;2.00;;;;;;;-143.84;38.61;44948.16;5092922;28;20455;-78
2022/06/21 05:05:36;;;;;;;6.30;2.77;;;;;;;-143.84;38.72;44919.59;5093249;28;20467;-78
2022/06/21 05:08:06;;;;;;;4.17;3.20;;;;;;;-143.84;39.80;44931.00;5093141;28;20442;-78
2022/06/21 05:10:37;;;;;;;7.03;3.90;;;;;;;-143.84;39.88;44931.00;5092800;28;20509;-78
2022/06/21 05:13:13;;;;;;;14.63;3.20;;;;;;;-143.84;40.14;44942.44;5093540;28;20428;-78
2022/06/21 05:15:42;;;;;;;3.90;2.40;;;;;;;-143.84;39.77;44929.09;5093009;28;20481;-77
2022/06/21 05:18:16;;;;;;;7.60;2.00;;;;;;;-143.84;38.99;44931.00;5091628;28;20443;-77
2022/06/21 05:20:47;;;;;;;2.87;2.20;;;;;;;-143.84;38.65;44894.84;5091817;28;20444;-78
2022/06/21 05:23:16;;;;;;;5.60;2.40;;;;;;;-143.84;38.65;44911.97;5091701;28;20448;-75
2022/06/21 05:25:45;;;;;;;3.30;2.00;;;;;;;-143.84;38.10;44906.25;5091569;28;20484;-75
2022/06/21 05:28:19;;;;;;;5.40;2.07;;;;;;;-143.84;37.67;44900.53;5091689;28;20448;-75
2022/06/21 05:30:52;;;;;;;2.53;2.10;;;;;;;-143.84;37.33;44900.53;5091695;28;21217;-75
2022/06/21 05:33:25;;;;;;;9.60;2.00;;;;;;;-143.84;36.69;44902.44;5091222;28;20488;-76
2022/06/21 05:35:53;;;;;;;2.47;2.23;;;;;;;-143.84;36.33;44883.41;5091888;28;20493;-75
2022/06/21 05:38:24;;;;;;;5.70;2.30;;;;;;;-143.84;36.07;44883.41;5091387;28;21008;-75
2022/06/21 05:40:57;;;;;;;2.50;2.30;;;;;;;-143.84;37.06;44875.78;5091354;28;20463;-75
2022/06/21 05:43:31;;;;;;;3.13;2.17;;;;;;;-143.84;36.72;44870.09;5091224;28;20458;-75
2022/06/21 05:46:03;;;;;;;5.67;2.40;;;;;;;-143.84;36.50;44858.66;5090949;28;20548;-76
2022/06/21 05:48:35;;;;;;;3.83;1.80;;;;;;;-143.84;36.76;44889.13;5091439;28;20436;-75
2022/06/21 05:51:05;;;;;;;8.70;2.20;;;;;;;-143.84;36.58;44906.25;5091363;28;20432;-76
2022/06/21 05:53:37;;;;;;;4.50;1.97;;;;;;;-143.84;35.74;44864.38;5091073;28;21320;-76
2022/06/21 05:56:08;;;;;;;2.47;1.83;;;;;;;-143.84;36.02;44862.47;5091205;28;20945;-76
2022/06/21 05:58:39;;;;;;;2.87;1.93;;;;;;;-143.84;35.53;44875.78;5091232;28;21238;-76
2022/06/21 06:01:15;;;;;;;3.00;2.37;;;;;;;-143.84;35.32;44862.47;5090651;28;20444;-75
2022/06/21 06:03:48;;;;;;;2.40;2.23;;;;;;;-143.84;35.82;44835.81;5090732;28;20945;-75
2022/06/21 06:06:20;;;;;;;4.10;1.70;;;;;;;-143.84;34.99;44858.66;5090742;28;20476;-75
2022/06/21 06:08:52;;;;;;;2.53;1.80;;;;;;;-143.84;34.27;44864.38;5090567;28;20963;-75
2022/06/21 06:11:24;;;;;;;3.73;1.90;;;;;;;-143.84;34.27;44839.63;5090622;28;20447;-75
2022/06/21 06:13:54;;;;;;;2.27;2.07;;;;;;;-143.84;34.10;44866.28;5090621;28;20447;-75
2022/06/21 06:16:37;;;;;;;12.43;2.60;;;;;;;-143.84;35.17;44871.97;5091647;28;20829;-75
2022/06/21 06:19:11;;;;;;;4.97;2.70;;;;;;;-143.84;34.85;44856.75;5091058;28;20535;-77
2022/06/21 06:21:43;;;;;;;2.87;2.67;;;;;;;-143.84;35.50;44858.66;5090985;28;20442;-74
2022/06/21 06:24:18;;;;;;;3.80;2.20;;;;;;;-143.84;34.83;44858.66;5090777;28;20439;-74
2022/06/21 06:26:53;;;;;;;7.30;2.50;;;;;;;-143.84;34.57;44832.00;5093620;28;21137;-76
2022/06/21 06:29:29;;;;;;;4.90;2.50;;;;;;;-143.84;34.39;44860.56;5110248;28;20484;-76
2022/06/21 06:32:04;;;;;;;3.43;2.27;;;;;;;-143.84;34.28;44858.66;5110227;28;20502;-76
2022/06/21 06:34:36;;;;;;;5.57;2.13;;;;;;;-143.84;33.47;44824.38;5111235;28;20451;-76
2022/06/21 06:37:07;;;;;;;3.57;1.83;;;;;;;-143.84;34.29;44822.47;5111333;28;20439;-76
2022/06/21 06:39:36;;;;;;;8.23;2.10;;;;;;;-143.84;32.89;44833.91;5111111;28;20500;-76
2022/06/21 06:42:08;;;;;;;10.00;2.10;;;;;;;-143.84;33.54;44822.47;5111186;28;20435;-76
2022/06/21 06:44:39;;;;;;;3.67;2.20;;;;;;;-143.84;34.11;44856.75;5109831;28;20991;-76
2022/06/21 06:47:15;;;;;;;7.33;1.90;;;;;;;-143.84;34.19;44830.09;5109507;28;20446;-76
2022/06/21 06:49:48;;;;;;;5.10;1.77;;;;;;;-143.84;32.68;44820.56;5109622;28;20442;-76
2022/06/21 06:52:19;;;;;;;2.53;2.33;;;;;;;-143.84;33.99;44833.91;5110205;28;20518;-76
2022/06/21 06:54:53;;;;;;;8.60;1.97;;;;;;;-143.84;34.23;44837.72;5110111;28;20948;-76
2022/06/21 06:57:28;;;;;;;11.53;2.93;;;;;;;-143.84;33.70;44847.22;5110226;28;20430;-76
2022/06/21 06:59:56;;;;;;;4.00;2.73;;;;;;;-143.84;34.31;44832.00;5110799;28;20920;-76
2022/06/21 07:02:32;;;;;;;9.27;2.40;;;;;;;-143.84;34.65;44856.75;5110858;28;20594;-76
2022/06/21 07:05:08;;;;;;;6.60;2.10;;;;;;;-143.84;33.99;44858.66;5110556;28;20490;-76
2022/06/21 07:07:44;;;;;;;4.00;2.13;;;;;;;-143.84;34.94;44803.44;5110576;28;20936;-76
2022/06/21 07:10:17;;;;;;;10.67;2.57;;;;;;;-143.84;36.02;44826.28;5110597;28;20492;-76
2022/06/21 07:12:44;;;;;;;3.13;2.90;;;;;;;-143.84;36.61;44849.13;5110605;28;20435;-76
2022/06/21 07:15:13;;;;;;;3.90;2.37;;;;;;;-143.84;35.39;44852.94;5110342;28;20955;-76
2022/06/21 07:17:46;;;;;;;3.47;2.50;;;;;;;-143.84;36.42;44858.66;5110500;28;20439;-76
2022/06/21 07:20:16;;;;;;;12.83;2.70;;;;;;;-143.84;35.42;44847.22;5110920;28;20446;-76
2022/06/21 07:22:44;;;;;;;5.23;2.47;;;;;;;-143.84;35.35;44847.22;5110354;28;20443;-76
2022/06/21 07:25:20;;;;;;;6.40;2.50;;;;;;;-143.84;35.14;44851.03;5110096;28;20482;-76
2022/06/21 07:27:52;;;;;;;3.50;2.90;;;;;;;-143.84;36.23;44862.47;5110210;28;20538;-76
2022/06/21 07:30:22;;;;;;;6.70;2.73;;;;;;;-143.84;36.24;44870.09;5110619;28;20500;-76
2022/06/21 07:32:55;;;;;;;8.23;2.70;;;;;;;-143.84;37.18;44851.03;5110554;28;20547;-76
2022/06/21 07:35:28;;;;;;;3.90;2.90;;;;;;;-143.84;37.30;44875.78;5111005;28;20446;-76
2022/06/21 07:38:03;;;;;;;7.40;3.03;;;;;;;-143.84;37.96;44851.03;5111089;28;20837;-78
2022/06/21 07:40:36;;;;;;;10.13;3.23;;;;;;;-143.84;38.09;44898.66;5110567;28;20483;-78
2022/06/21 07:43:09;;;;;;;4.10;2.97;;;;;;;-143.84;37.24;44883.41;5110758;28;20435;-79
2022/06/21 07:45:41;;;;;;;4.23;3.07;;;;;;;-143.84;36.31;44864.38;5110720;28;20478;-79
2022/06/21 07:48:16;;;;;;;4.37;2.90;;;;;;;-143.84;37.02;44887.22;5110799;28;20435;-79
2022/06/21 07:50:48;;;;;;;7.83;4.13;;;;;;;-143.84;38.78;44894.84;5110523;28;20500;-79
2022/06/21 07:53:22;;;;;;;6.37;4.30;;;;;;;-143.84;38.59;44902.44;5110730;28;20443;-79
2022/06/21 07:55:54;;;;;;;7.20;3.97;;;;;;;-143.84;39.07;44911.97;5110866;28;20457;-79
2022/06/21 07:58:29;;;;;;;11.20;3.90;;;;;;;-143.84;38.98;44892.94;5110945;28;20430;-79
2022/06/21 08:06:45;;;;;;;7.80;4.10;;;;;;;-143.84;38.17;44919.59;5110493;28;20497;-79
2022/06/21 08:09:24;;;;;;;10.90;5.70;;;;;;;-143.84;41.20;44887.22;5110949;28;20429;-77
2022/06/21 08:11:55;;;;;;;8.30;4.57;;;;;;;-143.84;39.97;44892.94;5110343;28;20438;-76
2022/06/21 08:14:23;;;;;;;4.57;4.20;;;;;;;-143.84;41.23;44891.03;5110509;28;20443;-78
2022/06/21 08:16:57;;;;;;;6.80;4.13;;;;;;;-143.84;41.84;44883.41;5110508;28;20435;-79
2022/06/21 08:19:33;;;;;;;7.70;3.97;;;;;;;-143.84;42.48;44870.09;5110309;28;20450;-79
2022/06/21 08:22:05;;;;;;;8.07;4.60;;;;;;;-143.84;43.35;44879.59;5110299;28;20438;-78
2022/06/21 08:24:39;;;;;;;3.90;3.60;;;;;;;-143.84;42.93;44889.13;5110129;28;20427;-79
2022/06/21 08:27:15;;;;;;;11.03;4.10;;;;;;;-143.84;43.06;44891.03;5110318;28;20531;-79
2022/06/21 08:29:50;;;;;;;6.70;3.43;;;;;;;-143.84;41.87;44896.75;5110796;28;20774;-79
2022/06/21 08:32:22;;;;;;;5.80;2.67;;;;;;;-143.84;42.91;44911.97;5109933;28;21142;-79
2022/06/21 08:34:55;;;;;;;7.13;3.10;;;;;;;-143.84;43.30;44891.03;5110253;28;20515;-79
2022/06/21 08:37:30;;;;;;;3.57;3.27;;;;;;;-143.84;43.88;44881.50;5110444;28;20447;-78
2022/06/21 08:40:03;;;;;;;2.90;2.70;;;;;;;-143.84;44.18;44913.88;5110647;28;20474;-79
2022/06/21 08:43:13;;;;;;;5.50;4.13;;;;;;;-143.84;44.46;44923.41;5110791;28;20423;-79
2022/06/21 08:46:15;;;;;;;5.23;4.73;;;;;;;-143.84;45.01;44921.50;5110180;28;20490;-79
2022/06/21 08:49:24;;;;;;;4.00;3.33;;;;;;;-143.84;46.38;44911.97;5110298;28;20450;-78
2022/06/21 08:52:20;;;;;;;2.87;2.63;;;;;;;-143.84;47.80;44910.06;5089676;28;21014;-79
2022/06/21 08:54:58;;;;;;;3.47;2.47;;;;;;;-143.84;46.27;44902.44;5113937;28;20869;-79
2022/06/21 08:57:38;;;;;;;7.40;3.50;;;;;;;-143.84;48.39;44875.78;5113632;28;21012;-79
2022/06/21 09:00:11;;;;;;;11.23;3.03;;;;;;;-143.84;47.06;44910.06;5114141;28;20439;-78
2022/06/21 09:02:56;;;;;;;3.40;3.10;;;;;;;-143.84;48.10;44931.00;5113463;28;20431;-77
2022/06/21 09:05:48;;;;;;;3.63;2.83;;;;;;;-143.84;47.73;44919.59;5112770;28;20482;-77
2022/06/21 09:08:44;;;;;;;4.33;3.20;;;;;;;-143.84;48.93;44896.75;5113786;28;20438;-77
2022/06/21 09:11:28;;;;;;;12.83;3.13;;;;;;;-143.84;48.88;44929.09;5112709;28;20457;-77
2022/06/21 09:14:18;;;;;;;4.57;2.60;;;;;;;-143.84;50.19;44931.00;5113282;28;20534;-77
2022/06/21 09:16:53;;;;;;;5.37;2.90;;;;;;;-143.84;51.20;44908.16;5112982;28;20443;-77
2022/06/21 09:19:36;;;;;;;3.87;3.13;;;;;;;-143.84;50.73;44919.59;5105255;28;20471;-77
2022/06/21 09:22:20;;;;;;;2.80;2.57;;;;;;;-143.84;51.04;44896.75;5084144;28;20452;-78
2022/06/21 09:24:59;;;;;;;4.70;3.00;;;;;;;-143.84;51.81;44955.75;5084860;28;20458;-78
2022/06/21 09:27:29;;;;;;;2.70;2.50;;;;;;;-143.84;54.01;44927.19;5085911;28;20448;-79
2022/06/21 09:30:07;;;;;;;3.27;2.90;;;;;;;-143.84;53.28;44934.81;5083652;28;20450;-74
2022/06/21 09:32:45;;;;;;;8.37;3.40;;;;;;;-143.84;53.67;44934.81;5082594;28;21287;-76
2022/06/21 09:35:25;;;;;;;3.47;3.17;;;;;;;-143.84;54.25;44934.81;5082946;28;20937;-76
2022/06/21 09:38:07;;;;;;;4.80;2.90;;;;;;;-143.84;54.50;44896.75;5084955;28;20451;-77
2022/06/21 09:40:41;;;;;;;7.20;3.67;;;;;;;-143.84;54.05;44925.31;5083425;28;20961;-76
2022/06/21 09:43:19;;;;;;;3.13;2.87;;;;;;;-143.84;53.31;44911.97;5083735;28;20450;-77
2022/06/21 09:45:54;;;;;;;6.10;3.03;;;;;;;-143.84;53.56;44911.97;5081940;28;20471;-75
2022/06/21 09:48:31;;;;;;;5.10;2.90;;;;;;;-143.84;51.44;44936.72;5083431;28;20485;-75
2022/06/21 09:51:04;;;;;;;2.90;2.60;;;;;;;-143.84;51.49;44915.78;5083141;28;20439;-75
2022/06/21 09:53:43;;;;;;;5.73;2.33;;;;;;;-143.84;50.90;44910.06;5082922;28;20432;-75
2022/06/21 09:56:22;;;;;;;6.17;2.67;;;;;;;-143.84;50.89;44904.34;5083510;28;20436;-77
2022/06/21 09:58:58;;;;;;;5.67;2.30;;;;;;;-143.84;50.46;44889.13;5084886;28;20440;-77
2022/06/21 10:01:32;;;;;;;8.03;2.80;;;;;;;-143.84;49.41;44913.88;5085025;28;20899;-77
2022/06/21 10:04:06;;;;;;;3.67;3.30;;;;;;;-143.84;49.31;44917.69;5084856;28;21312;-77
2022/06/21 10:06:42;;;;;;;4.13;2.43;;;;;;;-143.84;46.93;44906.25;5082716;28;20483;-75
2022/06/21 10:09:21;;;;;;;3.40;2.50;;;;;;;-143.84;46.48;44898.66;5084631;28;20447;-76
2022/06/21 10:11:58;;;;;;;2.50;2.30;;;;;;;-143.84;47.20;44923.41;5091666;28;20447;-78
2022/06/21 10:15:01;;;;;;;3.03;2.13;;;;;;;-143.84;46.83;44925.31;5091733;28;20440;-76
2022/06/21 10:17:52;;;;;;;4.33;2.70;;;;;;;-143.84;47.32;44931.00;5078780;28;20438;-77
2022/06/21 10:20:48;;;;;;;3.83;2.17;;;;;;;-143.84;47.12;44931.00;5092335;28;20450;-77
2022/06/21 10:23:33;;;;;;;2.50;2.30;;;;;;;-143.84;48.51;44898.66;5092219;28;20443;-77
2022/06/21 10:26:17;;;;;;;2.47;2.37;;;;;;;-143.84;46.75;44936.72;5092217;28;20509;-77
2022/06/21 10:29:08;;;;;;;2.13;2.03;;;;;;;-143.84;47.12;44894.84;5091930;28;20435;-77
2022/06/21 10:31:49;;;;;;;3.77;2.17;;;;;;;-143.84;48.31;44927.19;5086247;28;20467;-77
2022/06/21 10:34:48;;;;;;;4.03;2.43;;;;;;;-143.84;47.42;44940.53;5091801;28;20435;-78
2022/06/21 10:37:31;;;;;;;5.57;2.27;;;;;;;-143.84;46.29;44919.59;5092501;28;20948;-78
2022/06/21 10:40:22;;;;;;;2.23;1.83;;;;;;;-143.84;44.66;44925.31;5092310;28;20819;-78
2022/06/21 10:43:31;;;;;;;5.83;2.33;;;;;;;-143.84;42.21;44911.97;5092575;28;20432;-78
2022/06/21 10:46:02;;;;;;;2.80;2.13;;;;;;;-143.84;41.60;44934.81;5093032;28;20463;-79
2022/06/21 10:49:20;;;;;;;2.60;2.40;;;;;;;-143.84;43.47;44915.78;5092397;28;20526;-79
2022/06/21 10:52:04;;;;;;;4.80;2.13;;;;;;;-143.84;43.01;44906.25;5092320;28;20428;-79
2022/06/21 10:54:48;;;;;;;2.73;2.40;;;;;;;-143.84;45.28;44946.25;5092632;28;20440;-78
2022/06/21 10:57:25;;;;;;;4.83;2.67;;;;;;;-143.84;46.15;44908.16;5091997;28;20440;-77
2022/06/21 11:03:18;;;;;;;2.53;2.33;;;;;;;-143.84;46.77;44906.25;5087588;28;20489;-77
2022/06/21 11:05:55;;;;;;;3.00;2.80;;;;;;;-143.84;46.72;44904.34;5090392;28;20941;-76
2022/06/21 11:08:37;;;;;;;5.83;3.93;;;;;;;-143.84;44.88;44915.78;5090355;28;20447;-76
2022/06/21 11:11:16;;;;;;;3.30;2.50;;;;;;;-143.84;45.78;44879.59;5089930;28;20526;-76
2022/06/21 11:13:50;;;;;;;4.90;2.70;;;;;;;-143.84;44.10;44887.22;5088863;28;20463;-76
2022/06/21 11:16:26;;;;;;;3.50;3.20;;;;;;;-143.84;42.93;44917.69;5087757;28;20447;-75
2022/06/21 11:19:10;;;;;;;8.10;3.37;;;;;;;-143.84;43.52;44911.97;5089261;28;20450;-77
2022/06/21 11:21:53;;;;;;;3.70;3.40;;;;;;;-143.84;42.33;44908.16;5089682;28;20481;-76
2022/06/21 11:24:32;;;;;;;5.33;3.30;;;;;;;-143.84;42.77;44894.84;5089397;28;20447;-76
2022/06/21 11:27:06;;;;;;;3.40;2.60;;;;;;;-143.84;43.66;44904.34;5089920;28;20467;-77
2022/06/21 11:29:41;;;;;;;3.23;2.50;;;;;;;-143.84;42.59;44911.97;5088212;28;20436;-76
2022/06/21 11:32:23;;;;;;;4.50;2.50;;;;;;;-143.84;42.49;44942.44;5089496;28;20548;-77
2022/06/21 11:35:03;;;;;;;6.00;2.93;;;;;;;-143.84;43.41;44942.44;5090071;28;20440;-76
2022/06/21 11:37:44;;;;;;;7.00;2.63;;;;;;;-143.84;42.16;44908.16;5090168;28;20447;-76
2022/06/21 11:40:30;;;;;;;3.10;2.90;;;;;;;-143.84;44.99;44898.66;5089385;28;20436;-76
2022/06/21 11:42:58;;;;;;;4.37;2.90;;;;;;;-143.84;44.67;44911.97;5089478;28;20444;-76
2022/06/21 11:45:42;;;;;;;3.50;3.30;;;;;;;-143.84;46.75;44898.66;5089973;28;20471;-75
2022/06/21 11:48:33;;;;;;;4.23;3.47;;;;;;;-143.84;50.25;44906.25;5089655;28;20436;-77
2022/06/21 11:51:22;;;;;;;10.40;4.07;;;;;;;-143.84;53.21;44913.88;5089751;28;20997;-76
2022/06/21 11:53:58;;;;;;;7.13;4.30;;;;;;;-143.84;53.36;44906.25;5089467;28;20436;-76
2022/06/21 11:56:38;;;;;;;4.83;4.37;;;;;;;-143.84;51.87;44917.69;5071673;28;20432;-76
2022/06/21 11:59:14;;;;;;;6.50;4.83;;;;;;;-143.84;53.63;44911.97;5089466;28;20862;-76
2022/06/21 12:01:50;;;;;;;19.37;5.57;;;;;;;-143.84;56.20;44896.75;5089216;28;20786;-76
2022/06/21 12:04:27;;;;;;;13.83;4.50;;;;;;;-143.84;53.33;44881.50;5089568;28;20420;-77
2022/06/21 12:07:03;;;;;;;5.00;4.60;;;;;;;-143.84;55.66;44898.66;5089534;28;20475;-77
2022/06/21 12:09:38;;;;;;;8.63;4.50;;;;;;;-143.84;56.71;44898.66;5089414;28;20522;-76
2022/06/21 12:12:35;;;;;;;6.27;4.53;;;;;;;-143.84;58.84;44917.69;5089721;28;20854;-76
2022/06/21 12:15:34;;;;;;;10.60;4.70;;;;;;;-143.84;57.40;44923.41;5069139;28;20444;-76
2022/06/21 12:18:06;;;;;;;12.33;4.30;;;;;;;-143.84;57.74;44944.34;5088967;28;20512;-78
2022/06/21 12:20:41;;;;;;;5.23;4.70;;;;;;;-143.84;57.61;44904.34;5089942;28;20431;-77
2022/06/21 12:23:19;;;;;;;4.87;4.33;;;;;;;-143.84;58.87;44921.50;5089338;28;20443;-77
2022/06/21 12:25:47;;;;;;;5.53;4.70;;;;;;;-143.84;58.87;44919.59;5089600;28;20523;-77